sensor_id;sensor_type;location;lat;lon;timestamp;temperature;humidity
35804;DHT22;21924;51.934;7.414;2023-06-26T00:01:07;22.10;99.90
35804;DHT22;21924;51.934;7.414;2023-06-26T00:03:52;22.10;99.90
35804;DHT22;21924;51.934;7.414;2023-06-26T00:06:36;22.10;99.90
35804;DHT22;21924;51.934;7.414;2023-06-26T00:09:22;22.10;99.90
35804;DHT22;21924;51.934;7.414;2023-06-26T00:12:07;22.00;99.90
35804;DHT22;21924;51.934;7.414;2023-06-26T00:14:52;22.00;99.90
35804;DHT22;21924;51.934;7.414;2023-06-26T00:17:37;22.00;99.90
35804;DHT22;21924;51.934;7.414;2023-06-26T00:20:21;22.00;99.90
35804;DHT22;21924;51.934;7.414;2023-06-26T00:23:07;22.00;99.90
35804;DHT22;21924;51.934;7.414;2023-06-26T00:25:52;22.00;99.90
35804;DHT22;21924;51.934;7.414;2023-06-26T00:28:36;22.00;99.90
35804;DHT22;21924;51.934;7.414;2023-06-26T00:31:20;21.90;99.90
35804;DHT22;21924;51.934;7.414;2023-06-26T00:34:04;21.90;99.90
35804;DHT22;21924;51.934;7.414;2023-06-26T00:36:49;21.90;99.90
35804;DHT22;21924;51.934;7.414;2023-06-26T00:39:33;21.90;99.90
35804;DHT22;21924;51.934;7.414;2023-06-26T00:42:17;21.80;99.90
35804;DHT22;21924;51.934;7.414;2023-06-26T00:45:01;21.80;99.90
35804;DHT22;21924;51.934;7.414;2023-06-26T00:47:46;21.80;99.90
35804;DHT22;21924;51.934;7.414;2023-06-26T00:50:30;21.70;99.90
35804;DHT22;21924;51.934;7.414;2023-06-26T00:53:15;21.70;99.90
35804;DHT22;21924;51.934;7.414;2023-06-26T00:55:59;21.70;99.90
35804;DHT22;21924;51.934;7.414;2023-06-26T00:58:44;21.70;99.90
35804;DHT22;21924;51.934;7.414;2023-06-26T01:01:29;21.60;99.90
35804;DHT22;21924;51.934;7.414;2023-06-26T01:04:14;21.70;99.90
35804;DHT22;21924;51.934;7.414;2023-06-26T01:07:02;21.60;99.90
35804;DHT22;21924;51.934;7.414;2023-06-26T01:09:48;21.50;99.90
35804;DHT22;21924;51.934;7.414;2023-06-26T01:12:33;21.50;99.90
35804;DHT22;21924;51.934;7.414;2023-06-26T01:15:17;21.40;99.90
35804;DHT22;21924;51.934;7.414;2023-06-26T01:18:02;21.40;99.90
35804;DHT22;21924;51.934;7.414;2023-06-26T01:20:48;21.30;99.90
35804;DHT22;21924;51.934;7.414;2023-06-26T01:23:53;21.30;99.90
35804;DHT22;21924;51.934;7.414;2023-06-26T01:26:41;21.30;99.90
35804;DHT22;21924;51.934;7.414;2023-06-26T01:29:29;21.20;99.90
35804;DHT22;21924;51.934;7.414;2023-06-26T01:32:14;21.20;99.90
35804;DHT22;21924;51.934;7.414;2023-06-26T01:34:59;21.20;99.90
35804;DHT22;21924;51.934;7.414;2023-06-26T01:37:43;21.10;99.90
35804;DHT22;21924;51.934;7.414;2023-06-26T01:40:28;21.10;99.90
35804;DHT22;21924;51.934;7.414;2023-06-26T01:53:01;21.00;99.90
35804;DHT22;21924;51.934;7.414;2023-06-26T01:55:53;21.00;99.90
35804;DHT22;21924;51.934;7.414;2023-06-26T01:58:44;20.90;99.90
35804;DHT22;21924;51.934;7.414;2023-06-26T02:01:29;20.90;99.90
35804;DHT22;21924;51.934;7.414;2023-06-26T02:04:15;20.80;99.90
35804;DHT22;21924;51.934;7.414;2023-06-26T02:06:59;20.80;99.90
35804;DHT22;21924;51.934;7.414;2023-06-26T02:09:43;20.70;99.90
35804;DHT22;21924;51.934;7.414;2023-06-26T02:12:28;20.60;99.90
35804;DHT22;21924;51.934;7.414;2023-06-26T02:15:12;20.60;99.90
35804;DHT22;21924;51.934;7.414;2023-06-26T02:17:56;20.50;99.90
35804;DHT22;21924;51.934;7.414;2023-06-26T02:20:40;20.50;99.90
35804;DHT22;21924;51.934;7.414;2023-06-26T02:23:25;20.60;99.90
35804;DHT22;21924;51.934;7.414;2023-06-26T02:26:09;20.40;99.90
35804;DHT22;21924;51.934;7.414;2023-06-26T02:28:53;20.40;99.90
35804;DHT22;21924;51.934;7.414;2023-06-26T02:31:37;20.40;99.90
35804;DHT22;21924;51.934;7.414;2023-06-26T02:34:22;20.30;99.90
35804;DHT22;21924;51.934;7.414;2023-06-26T02:37:06;20.20;99.90
35804;DHT22;21924;51.934;7.414;2023-06-26T02:39:51;20.20;99.90
35804;DHT22;21924;51.934;7.414;2023-06-26T02:42:35;20.20;99.90
35804;DHT22;21924;51.934;7.414;2023-06-26T02:45:20;20.30;99.90
35804;DHT22;21924;51.934;7.414;2023-06-26T02:48:04;20.30;99.90
35804;DHT22;21924;51.934;7.414;2023-06-26T02:50:48;20.30;99.90
35804;DHT22;21924;51.934;7.414;2023-06-26T02:53:33;20.20;99.90
35804;DHT22;21924;51.934;7.414;2023-06-26T02:56:17;20.10;99.90
35804;DHT22;21924;51.934;7.414;2023-06-26T02:59:01;20.20;99.90
35804;DHT22;21924;51.934;7.414;2023-06-26T03:01:45;20.10;99.90
35804;DHT22;21924;51.934;7.414;2023-06-26T03:04:30;20.00;99.90
35804;DHT22;21924;51.934;7.414;2023-06-26T03:07:14;19.90;99.90
35804;DHT22;21924;51.934;7.414;2023-06-26T03:09:58;19.90;99.90
35804;DHT22;21924;51.934;7.414;2023-06-26T03:12:44;20.00;99.90
35804;DHT22;21924;51.934;7.414;2023-06-26T03:15:28;19.90;99.90
35804;DHT22;21924;51.934;7.414;2023-06-26T03:18:13;19.90;99.90
35804;DHT22;21924;51.934;7.414;2023-06-26T03:20:57;19.90;99.90
35804;DHT22;21924;51.934;7.414;2023-06-26T03:23:41;19.80;99.90
35804;DHT22;21924;51.934;7.414;2023-06-26T03:26:25;19.80;99.90
35804;DHT22;21924;51.934;7.414;2023-06-26T03:29:12;19.80;99.90
35804;DHT22;21924;51.934;7.414;2023-06-26T03:31:56;19.80;99.90
35804;DHT22;21924;51.934;7.414;2023-06-26T03:34:40;19.70;99.90
35804;DHT22;21924;51.934;7.414;2023-06-26T03:37:25;19.80;99.90
35804;DHT22;21924;51.934;7.414;2023-06-26T03:40:09;19.80;99.90
35804;DHT22;21924;51.934;7.414;2023-06-26T03:42:54;19.80;99.90
35804;DHT22;21924;51.934;7.414;2023-06-26T03:45:38;19.70;99.90
35804;DHT22;21924;51.934;7.414;2023-06-26T03:48:22;19.70;99.90
35804;DHT22;21924;51.934;7.414;2023-06-26T03:51:07;19.70;99.90
35804;DHT22;21924;51.934;7.414;2023-06-26T03:53:52;19.70;99.90
35804;DHT22;21924;51.934;7.414;2023-06-26T03:56:36;19.70;99.90
35804;DHT22;21924;51.934;7.414;2023-06-26T03:59:20;19.80;99.90
35804;DHT22;21924;51.934;7.414;2023-06-26T04:02:05;19.80;99.90
35804;DHT22;21924;51.934;7.414;2023-06-26T04:04:49;19.80;99.90
35804;DHT22;21924;51.934;7.414;2023-06-26T04:07:33;19.80;99.90
35804;DHT22;21924;51.934;7.414;2023-06-26T04:10:19;19.80;99.90
35804;DHT22;21924;51.934;7.414;2023-06-26T04:13:05;19.80;99.90
35804;DHT22;21924;51.934;7.414;2023-06-26T04:15:49;19.90;99.90
35804;DHT22;21924;51.934;7.414;2023-06-26T04:18:33;19.90;99.90
35804;DHT22;21924;51.934;7.414;2023-06-26T04:21:18;19.90;99.90
35804;DHT22;21924;51.934;7.414;2023-06-26T04:24:03;20.10;99.90
35804;DHT22;21924;51.934;7.414;2023-06-26T04:26:47;20.40;99.90
35804;DHT22;21924;51.934;7.414;2023-06-26T04:29:31;20.60;99.90
35804;DHT22;21924;51.934;7.414;2023-06-26T04:32:15;21.00;99.90
35804;DHT22;21924;51.934;7.414;2023-06-26T04:35:00;21.10;99.90
35804;DHT22;21924;51.934;7.414;2023-06-26T04:37:44;21.30;99.90
35804;DHT22;21924;51.934;7.414;2023-06-26T04:40:29;21.30;99.90
35804;DHT22;21924;51.934;7.414;2023-06-26T04:43:13;21.50;99.90
35804;DHT22;21924;51.934;7.414;2023-06-26T04:45:57;21.70;99.90
35804;DHT22;21924;51.934;7.414;2023-06-26T04:48:42;21.70;99.90
35804;DHT22;21924;51.934;7.414;2023-06-26T04:51:28;21.60;99.90
35804;DHT22;21924;51.934;7.414;2023-06-26T04:54:12;21.70;99.90
35804;DHT22;21924;51.934;7.414;2023-06-26T04:56:56;21.80;99.90
35804;DHT22;21924;51.934;7.414;2023-06-26T04:59:41;21.90;99.90
35804;DHT22;21924;51.934;7.414;2023-06-26T05:02:25;21.80;99.90
35804;DHT22;21924;51.934;7.414;2023-06-26T05:05:10;21.80;99.90
35804;DHT22;21924;51.934;7.414;2023-06-26T05:07:55;21.70;99.90
35804;DHT22;21924;51.934;7.414;2023-06-26T05:10:39;21.60;99.90
35804;DHT22;21924;51.934;7.414;2023-06-26T05:13:25;21.60;99.90
35804;DHT22;21924;51.934;7.414;2023-06-26T05:16:09;21.60;99.90
35804;DHT22;21924;51.934;7.414;2023-06-26T05:18:54;21.60;99.90
35804;DHT22;21924;51.934;7.414;2023-06-26T05:21:38;21.60;99.90
35804;DHT22;21924;51.934;7.414;2023-06-26T05:24:23;21.70;99.90
35804;DHT22;21924;51.934;7.414;2023-06-26T05:27:08;21.70;99.90
35804;DHT22;21924;51.934;7.414;2023-06-26T05:29:52;21.70;99.90
35804;DHT22;21924;51.934;7.414;2023-06-26T05:32:38;21.70;99.90
35804;DHT22;21924;51.934;7.414;2023-06-26T05:35:24;21.70;99.90
35804;DHT22;21924;51.934;7.414;2023-06-26T05:38:12;21.70;99.90
35804;DHT22;21924;51.934;7.414;2023-06-26T05:40:57;21.70;99.90
35804;DHT22;21924;51.934;7.414;2023-06-26T05:43:42;21.70;99.90
35804;DHT22;21924;51.934;7.414;2023-06-26T05:46:26;21.70;99.90
35804;DHT22;21924;51.934;7.414;2023-06-26T05:49:10;21.70;99.90
35804;DHT22;21924;51.934;7.414;2023-06-26T05:51:54;21.70;99.90
35804;DHT22;21924;51.934;7.414;2023-06-26T05:54:39;21.70;99.90
35804;DHT22;21924;51.934;7.414;2023-06-26T05:57:24;21.70;99.90
35804;DHT22;21924;51.934;7.414;2023-06-26T06:00:09;21.80;99.90
35804;DHT22;21924;51.934;7.414;2023-06-26T06:02:55;21.80;99.90
35804;DHT22;21924;51.934;7.414;2023-06-26T06:05:39;21.80;99.90
35804;DHT22;21924;51.934;7.414;2023-06-26T06:08:23;22.00;99.90
35804;DHT22;21924;51.934;7.414;2023-06-26T06:11:07;22.10;99.90
35804;DHT22;21924;51.934;7.414;2023-06-26T06:13:52;22.20;99.90
35804;DHT22;21924;51.934;7.414;2023-06-26T06:16:36;22.30;99.90
35804;DHT22;21924;51.934;7.414;2023-06-26T06:19:21;22.20;99.90
35804;DHT22;21924;51.934;7.414;2023-06-26T06:22:05;22.00;99.90
35804;DHT22;21924;51.934;7.414;2023-06-26T06:24:50;21.90;99.90
35804;DHT22;21924;51.934;7.414;2023-06-26T06:27:34;21.80;99.90
35804;DHT22;21924;51.934;7.414;2023-06-26T06:30:18;21.50;99.90
35804;DHT22;21924;51.934;7.414;2023-06-26T06:33:03;21.70;99.90
35804;DHT22;21924;51.934;7.414;2023-06-26T06:35:47;21.70;99.90
35804;DHT22;21924;51.934;7.414;2023-06-26T06:38:31;21.60;99.90
35804;DHT22;21924;51.934;7.414;2023-06-26T06:41:16;21.50;99.90
35804;DHT22;21924;51.934;7.414;2023-06-26T06:44:00;21.60;99.90
35804;DHT22;21924;51.934;7.414;2023-06-26T06:46:44;21.70;99.90
35804;DHT22;21924;51.934;7.414;2023-06-26T06:49:29;21.60;99.90
35804;DHT22;21924;51.934;7.414;2023-06-26T06:52:13;21.60;99.90
35804;DHT22;21924;51.934;7.414;2023-06-26T06:54:58;21.30;99.90
35804;DHT22;21924;51.934;7.414;2023-06-26T06:57:49;21.30;99.90
35804;DHT22;21924;51.934;7.414;2023-06-26T07:00:33;21.30;99.90
35804;DHT22;21924;51.934;7.414;2023-06-26T07:03:18;21.30;99.90
35804;DHT22;21924;51.934;7.414;2023-06-26T07:06:02;21.30;99.90
35804;DHT22;21924;51.934;7.414;2023-06-26T07:08:47;21.40;99.90
35804;DHT22;21924;51.934;7.414;2023-06-26T07:11:31;21.50;99.90
35804;DHT22;21924;51.934;7.414;2023-06-26T07:14:16;21.80;99.90
35804;DHT22;21924;51.934;7.414;2023-06-26T07:17:00;21.80;99.90
35804;DHT22;21924;51.934;7.414;2023-06-26T07:19:44;21.90;99.90
35804;DHT22;21924;51.934;7.414;2023-06-26T07:22:28;22.20;99.90
35804;DHT22;21924;51.934;7.414;2023-06-26T07:25:13;22.40;99.90
35804;DHT22;21924;51.934;7.414;2023-06-26T07:27:58;22.60;99.90
35804;DHT22;21924;51.934;7.414;2023-06-26T07:30:42;22.50;99.90
35804;DHT22;21924;51.934;7.414;2023-06-26T07:33:26;22.40;99.90
35804;DHT22;21924;51.934;7.414;2023-06-26T07:36:10;22.50;99.90
35804;DHT22;21924;51.934;7.414;2023-06-26T07:38:54;22.40;99.90
35804;DHT22;21924;51.934;7.414;2023-06-26T07:41:38;22.50;99.90
35804;DHT22;21924;51.934;7.414;2023-06-26T07:44:23;22.60;99.90
35804;DHT22;21924;51.934;7.414;2023-06-26T07:47:07;22.90;99.90
35804;DHT22;21924;51.934;7.414;2023-06-26T07:49:51;22.90;99.90
35804;DHT22;21924;51.934;7.414;2023-06-26T07:52:36;23.00;99.90
35804;DHT22;21924;51.934;7.414;2023-06-26T07:55:20;23.10;99.90
35804;DHT22;21924;51.934;7.414;2023-06-26T07:58:05;23.10;99.90
35804;DHT22;21924;51.934;7.414;2023-06-26T08:00:49;23.20;99.90
35804;DHT22;21924;51.934;7.414;2023-06-26T08:03:33;23.40;99.90
35804;DHT22;21924;51.934;7.414;2023-06-26T08:06:18;23.50;99.90
35804;DHT22;21924;51.934;7.414;2023-06-26T08:09:03;23.60;99.90
35804;DHT22;21924;51.934;7.414;2023-06-26T08:11:48;23.70;99.90
35804;DHT22;21924;51.934;7.414;2023-06-26T08:14:33;24.00;99.90
35804;DHT22;21924;51.934;7.414;2023-06-26T08:17:17;23.80;99.90
35804;DHT22;21924;51.934;7.414;2023-06-26T08:20:02;23.80;99.90
35804;DHT22;21924;51.934;7.414;2023-06-26T08:22:46;23.90;99.90
35804;DHT22;21924;51.934;7.414;2023-06-26T08:25:32;23.90;99.90
35804;DHT22;21924;51.934;7.414;2023-06-26T08:28:16;23.90;99.90
35804;DHT22;21924;51.934;7.414;2023-06-26T08:31:00;23.90;99.90
35804;DHT22;21924;51.934;7.414;2023-06-26T08:33:45;24.00;99.90
35804;DHT22;21924;51.934;7.414;2023-06-26T08:36:29;23.90;99.90
35804;DHT22;21924;51.934;7.414;2023-06-26T08:39:13;23.90;99.90
35804;DHT22;21924;51.934;7.414;2023-06-26T08:41:58;23.70;99.90
35804;DHT22;21924;51.934;7.414;2023-06-26T08:44:42;23.80;99.90
35804;DHT22;21924;51.934;7.414;2023-06-26T08:47:27;23.80;99.90
35804;DHT22;21924;51.934;7.414;2023-06-26T08:50:12;24.00;99.90
35804;DHT22;21924;51.934;7.414;2023-06-26T08:55:52;24.40;99.90
35804;DHT22;21924;51.934;7.414;2023-06-26T08:58:37;24.50;99.90
35804;DHT22;21924;51.934;7.414;2023-06-26T09:01:22;24.20;99.90
35804;DHT22;21924;51.934;7.414;2023-06-26T09:04:07;23.70;99.90
35804;DHT22;21924;51.934;7.414;2023-06-26T09:06:52;23.60;99.90
35804;DHT22;21924;51.934;7.414;2023-06-26T09:09:36;23.40;99.90
35804;DHT22;21924;51.934;7.414;2023-06-26T09:12:20;23.50;99.90
35804;DHT22;21924;51.934;7.414;2023-06-26T09:15:06;23.60;99.90
35804;DHT22;21924;51.934;7.414;2023-06-26T09:17:50;23.80;99.90
35804;DHT22;21924;51.934;7.414;2023-06-26T09:20:39;24.10;99.90
35804;DHT22;21924;51.934;7.414;2023-06-26T09:23:23;24.40;99.90
35804;DHT22;21924;51.934;7.414;2023-06-26T09:26:08;24.40;99.90
35804;DHT22;21924;51.934;7.414;2023-06-26T09:28:53;24.20;99.90
35804;DHT22;21924;51.934;7.414;2023-06-26T09:31:38;24.00;99.90
35804;DHT22;21924;51.934;7.414;2023-06-26T09:34:22;24.00;99.90
35804;DHT22;21924;51.934;7.414;2023-06-26T09:37:06;24.10;99.90
35804;DHT22;21924;51.934;7.414;2023-06-26T09:39:51;24.20;99.90
35804;DHT22;21924;51.934;7.414;2023-06-26T09:42:35;24.60;99.90
35804;DHT22;21924;51.934;7.414;2023-06-26T09:45:20;24.70;99.90
35804;DHT22;21924;51.934;7.414;2023-06-26T09:48:05;24.60;99.90
35804;DHT22;21924;51.934;7.414;2023-06-26T09:50:53;24.50;99.90
35804;DHT22;21924;51.934;7.414;2023-06-26T09:53:37;24.50;99.90
35804;DHT22;21924;51.934;7.414;2023-06-26T09:56:22;24.50;99.90
35804;DHT22;21924;51.934;7.414;2023-06-26T09:59:06;23.80;99.90
35804;DHT22;21924;51.934;7.414;2023-06-26T10:01:58;23.70;99.90
35804;DHT22;21924;51.934;7.414;2023-06-26T10:04:43;23.70;99.90
35804;DHT22;21924;51.934;7.414;2023-06-26T10:07:28;23.70;99.90
35804;DHT22;21924;51.934;7.414;2023-06-26T10:10:12;23.80;99.90
35804;DHT22;21924;51.934;7.414;2023-06-26T10:13:01;24.10;99.90
35804;DHT22;21924;51.934;7.414;2023-06-26T10:15:50;24.50;99.90
35804;DHT22;21924;51.934;7.414;2023-06-26T10:18:41;24.70;99.90
35804;DHT22;21924;51.934;7.414;2023-06-26T10:21:26;24.80;99.90
35804;DHT22;21924;51.934;7.414;2023-06-26T10:24:13;24.70;99.90
35804;DHT22;21924;51.934;7.414;2023-06-26T10:27:03;24.70;99.90
35804;DHT22;21924;51.934;7.414;2023-06-26T10:29:56;24.60;99.90
35804;DHT22;21924;51.934;7.414;2023-06-26T10:32:42;24.20;99.90
35804;DHT22;21924;51.934;7.414;2023-06-26T10:35:26;24.00;99.90
35804;DHT22;21924;51.934;7.414;2023-06-26T10:38:11;24.10;99.90
35804;DHT22;21924;51.934;7.414;2023-06-26T10:40:56;24.60;99.90
35804;DHT22;21924;51.934;7.414;2023-06-26T10:43:40;24.80;99.90
35804;DHT22;21924;51.934;7.414;2023-06-26T10:46:24;25.20;99.90
35804;DHT22;21924;51.934;7.414;2023-06-26T10:49:12;25.50;99.90
35804;DHT22;21924;51.934;7.414;2023-06-26T10:52:01;25.70;99.90
35804;DHT22;21924;51.934;7.414;2023-06-26T10:54:45;25.90;99.90
35804;DHT22;21924;51.934;7.414;2023-06-26T10:57:29;25.90;99.90
35804;DHT22;21924;51.934;7.414;2023-06-26T11:00:15;25.80;99.90
35804;DHT22;21924;51.934;7.414;2023-06-26T11:02:59;25.80;99.90
35804;DHT22;21924;51.934;7.414;2023-06-26T11:05:44;25.80;99.90
35804;DHT22;21924;51.934;7.414;2023-06-26T11:08:47;25.80;99.90
35804;DHT22;21924;51.934;7.414;2023-06-26T11:14:35;26.10;99.90
35804;DHT22;21924;51.934;7.414;2023-06-26T11:17:20;26.20;99.90
35804;DHT22;21924;51.934;7.414;2023-06-26T11:20:09;26.20;99.90
35804;DHT22;21924;51.934;7.414;2023-06-26T11:22:55;26.40;99.90
35804;DHT22;21924;51.934;7.414;2023-06-26T11:25:40;25.70;99.90
35804;DHT22;21924;51.934;7.414;2023-06-26T11:28:24;25.30;99.90
35804;DHT22;21924;51.934;7.414;2023-06-26T11:31:33;25.40;99.90
35804;DHT22;21924;51.934;7.414;2023-06-26T11:34:17;25.60;99.90
35804;DHT22;21924;51.934;7.414;2023-06-26T11:37:02;25.60;99.90
35804;DHT22;21924;51.934;7.414;2023-06-26T11:39:47;25.70;99.90
35804;DHT22;21924;51.934;7.414;2023-06-26T11:42:31;26.00;99.90
35804;DHT22;21924;51.934;7.414;2023-06-26T11:45:16;26.20;99.90
35804;DHT22;21924;51.934;7.414;2023-06-26T11:48:02;26.20;99.90
35804;DHT22;21924;51.934;7.414;2023-06-26T11:50:50;26.20;99.90
35804;DHT22;21924;51.934;7.414;2023-06-26T11:53:42;26.00;99.90
35804;DHT22;21924;51.934;7.414;2023-06-26T11:56:26;25.50;99.90
35804;DHT22;21924;51.934;7.414;2023-06-26T11:59:11;25.30;99.90
35804;DHT22;21924;51.934;7.414;2023-06-26T12:01:56;25.50;99.90
35804;DHT22;21924;51.934;7.414;2023-06-26T12:04:42;25.90;99.90
35804;DHT22;21924;51.934;7.414;2023-06-26T12:07:26;25.60;99.90
35804;DHT22;21924;51.934;7.414;2023-06-26T12:10:11;25.80;99.90
35804;DHT22;21924;51.934;7.414;2023-06-26T12:12:56;26.00;99.90
35804;DHT22;21924;51.934;7.414;2023-06-26T12:15:43;25.90;99.90
35804;DHT22;21924;51.934;7.414;2023-06-26T12:18:34;25.80;99.90
35804;DHT22;21924;51.934;7.414;2023-06-26T12:24:22;25.50;99.90
35804;DHT22;21924;51.934;7.414;2023-06-26T12:27:11;25.50;99.90
35804;DHT22;21924;51.934;7.414;2023-06-26T12:29:55;25.80;99.90
35804;DHT22;21924;51.934;7.414;2023-06-26T12:32:39;26.00;99.90
35804;DHT22;21924;51.934;7.414;2023-06-26T12:35:25;26.10;99.90
35804;DHT22;21924;51.934;7.414;2023-06-26T12:38:09;26.20;99.90
35804;DHT22;21924;51.934;7.414;2023-06-26T12:40:56;26.40;99.90
35804;DHT22;21924;51.934;7.414;2023-06-26T12:43:42;26.40;99.90
35804;DHT22;21924;51.934;7.414;2023-06-26T12:46:37;26.40;99.90
35804;DHT22;21924;51.934;7.414;2023-06-26T12:49:38;26.70;99.90
35804;DHT22;21924;51.934;7.414;2023-06-26T12:52:23;26.90;99.90
35804;DHT22;21924;51.934;7.414;2023-06-26T12:55:07;27.00;99.90
35804;DHT22;21924;51.934;7.414;2023-06-26T12:57:52;26.80;99.90
35804;DHT22;21924;51.934;7.414;2023-06-26T13:00:36;26.80;99.90
35804;DHT22;21924;51.934;7.414;2023-06-26T13:03:20;27.30;99.90
35804;DHT22;21924;51.934;7.414;2023-06-26T13:06:05;27.60;99.90
35804;DHT22;21924;51.934;7.414;2023-06-26T13:08:49;27.80;99.90
35804;DHT22;21924;51.934;7.414;2023-06-26T13:11:34;28.20;99.90
35804;DHT22;21924;51.934;7.414;2023-06-26T13:14:20;27.30;99.90
35804;DHT22;21924;51.934;7.414;2023-06-26T13:17:05;26.70;99.90
35804;DHT22;21924;51.934;7.414;2023-06-26T13:19:49;26.60;99.90
35804;DHT22;21924;51.934;7.414;2023-06-26T13:22:33;25.90;99.90
35804;DHT22;21924;51.934;7.414;2023-06-26T13:25:17;25.40;99.90
35804;DHT22;21924;51.934;7.414;2023-06-26T13:28:02;25.60;99.90
35804;DHT22;21924;51.934;7.414;2023-06-26T13:30:46;25.60;99.90
35804;DHT22;21924;51.934;7.414;2023-06-26T13:33:31;25.80;99.90
35804;DHT22;21924;51.934;7.414;2023-06-26T13:36:16;26.30;99.90
35804;DHT22;21924;51.934;7.414;2023-06-26T13:39:01;26.90;99.90
35804;DHT22;21924;51.934;7.414;2023-06-26T13:41:45;27.30;99.90
35804;DHT22;21924;51.934;7.414;2023-06-26T13:44:30;26.70;99.90
35804;DHT22;21924;51.934;7.414;2023-06-26T13:47:14;25.80;99.90
35804;DHT22;21924;51.934;7.414;2023-06-26T13:49:58;25.50;99.90
35804;DHT22;21924;51.934;7.414;2023-06-26T13:52:42;26.10;99.90
35804;DHT22;21924;51.934;7.414;2023-06-26T13:55:27;27.40;99.90
35804;DHT22;21924;51.934;7.414;2023-06-26T13:58:11;27.60;99.90
35804;DHT22;21924;51.934;7.414;2023-06-26T14:00:57;27.60;99.90
35804;DHT22;21924;51.934;7.414;2023-06-26T14:03:42;27.80;99.90
35804;DHT22;21924;51.934;7.414;2023-06-26T14:06:26;28.30;99.90
35804;DHT22;21924;51.934;7.414;2023-06-26T14:09:10;29.20;99.90
35804;DHT22;21924;51.934;7.414;2023-06-26T14:11:55;29.40;99.90
35804;DHT22;21924;51.934;7.414;2023-06-26T14:14:39;28.60;99.90
35804;DHT22;21924;51.934;7.414;2023-06-26T14:17:23;27.40;99.90
35804;DHT22;21924;51.934;7.414;2023-06-26T14:20:10;26.70;99.90
35804;DHT22;21924;51.934;7.414;2023-06-26T14:22:56;26.00;99.90
35804;DHT22;21924;51.934;7.414;2023-06-26T14:25:40;25.60;99.90
35804;DHT22;21924;51.934;7.414;2023-06-26T14:28:24;25.40;99.90
35804;DHT22;21924;51.934;7.414;2023-06-26T14:31:09;26.10;99.90
35804;DHT22;21924;51.934;7.414;2023-06-26T14:33:53;27.30;99.90
35804;DHT22;21924;51.934;7.414;2023-06-26T14:36:37;28.30;99.90
35804;DHT22;21924;51.934;7.414;2023-06-26T14:39:22;28.80;99.90
35804;DHT22;21924;51.934;7.414;2023-06-26T14:42:06;29.00;99.90
35804;DHT22;21924;51.934;7.414;2023-06-26T14:44:51;28.60;99.90
35804;DHT22;21924;51.934;7.414;2023-06-26T14:47:35;28.50;99.90
35804;DHT22;21924;51.934;7.414;2023-06-26T14:50:19;28.70;99.90
35804;DHT22;21924;51.934;7.414;2023-06-26T14:53:04;28.20;99.90
35804;DHT22;21924;51.934;7.414;2023-06-26T14:55:48;28.40;99.90
35804;DHT22;21924;51.934;7.414;2023-06-26T14:58:32;28.80;99.90
35804;DHT22;21924;51.934;7.414;2023-06-26T15:01:17;28.90;99.90
35804;DHT22;21924;51.934;7.414;2023-06-26T15:04:03;28.80;99.90
35804;DHT22;21924;51.934;7.414;2023-06-26T15:06:48;28.80;99.90
35804;DHT22;21924;51.934;7.414;2023-06-26T15:09:32;28.80;99.90
35804;DHT22;21924;51.934;7.414;2023-06-26T15:12:16;28.60;99.90
35804;DHT22;21924;51.934;7.414;2023-06-26T15:15:01;27.80;99.90
35804;DHT22;21924;51.934;7.414;2023-06-26T15:17:45;27.50;99.90
35804;DHT22;21924;51.934;7.414;2023-06-26T15:20:29;27.10;99.60
35804;DHT22;21924;51.934;7.414;2023-06-26T15:23:13;26.50;99.30
35804;DHT22;21924;51.934;7.414;2023-06-26T15:25:58;26.20;99.40
35804;DHT22;21924;51.934;7.414;2023-06-26T15:28:42;26.10;99.90
35804;DHT22;21924;51.934;7.414;2023-06-26T15:31:28;26.20;99.90
35804;DHT22;21924;51.934;7.414;2023-06-26T15:34:13;25.80;99.90
35804;DHT22;21924;51.934;7.414;2023-06-26T15:36:58;25.50;99.90
35804;DHT22;21924;51.934;7.414;2023-06-26T15:39:42;25.10;99.90
35804;DHT22;21924;51.934;7.414;2023-06-26T15:42:27;25.00;99.90
35804;DHT22;21924;51.934;7.414;2023-06-26T15:45:16;24.70;99.90
35804;DHT22;21924;51.934;7.414;2023-06-26T15:48:02;24.50;99.90
35804;DHT22;21924;51.934;7.414;2023-06-26T15:50:46;24.30;99.90
35804;DHT22;21924;51.934;7.414;2023-06-26T15:53:37;24.40;99.90
35804;DHT22;21924;51.934;7.414;2023-06-26T15:56:22;24.30;99.90
35804;DHT22;21924;51.934;7.414;2023-06-26T15:59:06;24.30;99.90
35804;DHT22;21924;51.934;7.414;2023-06-26T16:01:51;24.20;99.90
35804;DHT22;21924;51.934;7.414;2023-06-26T16:04:35;24.20;99.90
35804;DHT22;21924;51.934;7.414;2023-06-26T16:07:19;24.10;99.90
35804;DHT22;21924;51.934;7.414;2023-06-26T16:10:05;24.10;99.90
35804;DHT22;21924;51.934;7.414;2023-06-26T16:12:50;24.00;99.90
35804;DHT22;21924;51.934;7.414;2023-06-26T16:15:34;23.70;99.90
35804;DHT22;21924;51.934;7.414;2023-06-26T16:18:18;23.50;99.90
35804;DHT22;21924;51.934;7.414;2023-06-26T16:21:02;23.50;99.90
35804;DHT22;21924;51.934;7.414;2023-06-26T16:23:47;23.50;99.90
35804;DHT22;21924;51.934;7.414;2023-06-26T16:26:31;23.30;99.90
35804;DHT22;21924;51.934;7.414;2023-06-26T16:29:15;23.30;99.90
35804;DHT22;21924;51.934;7.414;2023-06-26T16:32:00;23.40;99.90
35804;DHT22;21924;51.934;7.414;2023-06-26T16:34:44;23.10;99.90
35804;DHT22;21924;51.934;7.414;2023-06-26T16:37:28;23.00;99.90
35804;DHT22;21924;51.934;7.414;2023-06-26T16:40:12;22.90;99.90
35804;DHT22;21924;51.934;7.414;2023-06-26T16:42:58;22.90;99.90
35804;DHT22;21924;51.934;7.414;2023-06-26T16:45:42;22.90;99.90
35804;DHT22;21924;51.934;7.414;2023-06-26T16:48:27;22.80;99.90
35804;DHT22;21924;51.934;7.414;2023-06-26T16:51:11;22.80;99.90
35804;DHT22;21924;51.934;7.414;2023-06-26T16:53:55;22.80;99.90
35804;DHT22;21924;51.934;7.414;2023-06-26T16:56:39;22.90;99.90
35804;DHT22;21924;51.934;7.414;2023-06-26T16:59:23;22.90;99.90
35804;DHT22;21924;51.934;7.414;2023-06-26T17:02:08;23.10;99.90
35804;DHT22;21924;51.934;7.414;2023-06-26T17:04:53;23.10;99.90
35804;DHT22;21924;51.934;7.414;2023-06-26T17:07:37;23.50;99.90
35804;DHT22;21924;51.934;7.414;2023-06-26T17:10:23;24.20;99.90
35804;DHT22;21924;51.934;7.414;2023-06-26T17:13:07;24.60;99.90
35804;DHT22;21924;51.934;7.414;2023-06-26T17:15:52;24.90;99.90
35804;DHT22;21924;51.934;7.414;2023-06-26T17:18:37;24.40;99.90
35804;DHT22;21924;51.934;7.414;2023-06-26T17:21:21;24.40;99.90
35804;DHT22;21924;51.934;7.414;2023-06-26T17:24:06;25.30;99.90
35804;DHT22;21924;51.934;7.414;2023-06-26T17:26:50;25.40;99.90
35804;DHT22;21924;51.934;7.414;2023-06-26T17:29:34;24.70;99.90
35804;DHT22;21924;51.934;7.414;2023-06-26T17:32:19;24.70;99.90
35804;DHT22;21924;51.934;7.414;2023-06-26T17:35:03;25.20;99.90
35804;DHT22;21924;51.934;7.414;2023-06-26T17:37:51;25.00;99.90
35804;DHT22;21924;51.934;7.414;2023-06-26T17:40:35;24.40;99.90